sensor_id;sensor_type;location;lat;lon;timestamp;temperature;humidity
7936;DHT22;4013;49.744;8.118;2023-04-06T00:00:54;2.70;99.90
7936;DHT22;4013;49.744;8.118;2023-04-06T00:03:21;2.80;99.90
7936;DHT22;4013;49.744;8.118;2023-04-06T00:05:49;2.90;99.90
7936;DHT22;4013;49.744;8.118;2023-04-06T00:08:16;2.90;99.90
7936;DHT22;4013;49.744;8.118;2023-04-06T00:10:43;2.90;99.90
7936;DHT22;4013;49.744;8.118;2023-04-06T00:13:11;2.80;99.90
7936;DHT22;4013;49.744;8.118;2023-04-06T00:15:38;2.60;99.90
7936;DHT22;4013;49.744;8.118;2023-04-06T00:18:05;2.50;99.90
7936;DHT22;4013;49.744;8.118;2023-04-06T00:20:32;2.40;99.90
7936;DHT22;4013;49.744;8.118;2023-04-06T00:23:00;2.40;99.90
7936;DHT22;4013;49.744;8.118;2023-04-06T00:25:27;2.40;99.90
7936;DHT22;4013;49.744;8.118;2023-04-06T00:27:55;2.40;99.90
7936;DHT22;4013;49.744;8.118;2023-04-06T00:30:22;2.30;99.90
7936;DHT22;4013;49.744;8.118;2023-04-06T00:32:49;2.30;99.90
7936;DHT22;4013;49.744;8.118;2023-04-06T00:35:16;2.30;99.90
7936;DHT22;4013;49.744;8.118;2023-04-06T00:37:46;2.20;99.90
7936;DHT22;4013;49.744;8.118;2023-04-06T00:40:15;2.20;99.90
7936;DHT22;4013;49.744;8.118;2023-04-06T00:42:42;2.20;99.90
7936;DHT22;4013;49.744;8.118;2023-04-06T00:45:10;2.10;99.90
7936;DHT22;4013;49.744;8.118;2023-04-06T00:47:37;2.20;99.90
7936;DHT22;4013;49.744;8.118;2023-04-06T00:50:05;2.20;99.90
7936;DHT22;4013;49.744;8.118;2023-04-06T00:52:33;2.10;99.90
7936;DHT22;4013;49.744;8.118;2023-04-06T00:55:00;2.00;99.90
7936;DHT22;4013;49.744;8.118;2023-04-06T00:57:29;2.00;99.90
7936;DHT22;4013;49.744;8.118;2023-04-06T00:59:56;2.00;99.90
7936;DHT22;4013;49.744;8.118;2023-04-06T01:02:23;1.90;99.90
7936;DHT22;4013;49.744;8.118;2023-04-06T01:04:51;1.90;99.90
7936;DHT22;4013;49.744;8.118;2023-04-06T01:07:19;1.90;99.90
7936;DHT22;4013;49.744;8.118;2023-04-06T01:09:46;1.90;99.90
7936;DHT22;4013;49.744;8.118;2023-04-06T01:12:13;2.00;99.90
7936;DHT22;4013;49.744;8.118;2023-04-06T01:14:42;2.10;99.90
7936;DHT22;4013;49.744;8.118;2023-04-06T01:17:09;2.10;99.90
7936;DHT22;4013;49.744;8.118;2023-04-06T01:19:36;2.20;99.90
7936;DHT22;4013;49.744;8.118;2023-04-06T01:22:03;2.20;99.90
7936;DHT22;4013;49.744;8.118;2023-04-06T01:24:32;2.30;99.90
7936;DHT22;4013;49.744;8.118;2023-04-06T01:26:59;2.20;99.90
7936;DHT22;4013;49.744;8.118;2023-04-06T01:29:26;2.10;99.90
7936;DHT22;4013;49.744;8.118;2023-04-06T01:31:53;1.90;99.90
7936;DHT22;4013;49.744;8.118;2023-04-06T01:34:21;1.80;99.90
7936;DHT22;4013;49.744;8.118;2023-04-06T01:36:48;1.80;99.90
7936;DHT22;4013;49.744;8.118;2023-04-06T01:39:15;1.80;99.90
7936;DHT22;4013;49.744;8.118;2023-04-06T01:41:43;1.60;99.90
7936;DHT22;4013;49.744;8.118;2023-04-06T01:44:12;1.50;99.90
7936;DHT22;4013;49.744;8.118;2023-04-06T01:46:39;1.40;99.90
7936;DHT22;4013;49.744;8.118;2023-04-06T01:49:06;1.60;99.90
7936;DHT22;4013;49.744;8.118;2023-04-06T01:51:33;1.70;99.90
7936;DHT22;4013;49.744;8.118;2023-04-06T01:54:00;1.90;99.90
7936;DHT22;4013;49.744;8.118;2023-04-06T01:56:27;1.90;99.90
7936;DHT22;4013;49.744;8.118;2023-04-06T01:58:56;2.00;99.90
7936;DHT22;4013;49.744;8.118;2023-04-06T02:01:23;1.90;99.90
7936;DHT22;4013;49.744;8.118;2023-04-06T02:03:50;1.80;99.90
7936;DHT22;4013;49.744;8.118;2023-04-06T02:06:17;1.80;99.90
7936;DHT22;4013;49.744;8.118;2023-04-06T02:08:44;1.90;99.90
7936;DHT22;4013;49.744;8.118;2023-04-06T02:11:11;1.90;99.90
7936;DHT22;4013;49.744;8.118;2023-04-06T02:13:38;1.90;99.90
7936;DHT22;4013;49.744;8.118;2023-04-06T02:16:07;1.90;99.90
7936;DHT22;4013;49.744;8.118;2023-04-06T02:18:34;1.90;99.90
7936;DHT22;4013;49.744;8.118;2023-04-06T02:21:01;2.00;99.90
7936;DHT22;4013;49.744;8.118;2023-04-06T02:23:28;2.00;99.90
7936;DHT22;4013;49.744;8.118;2023-04-06T02:25:55;2.00;99.90
7936;DHT22;4013;49.744;8.118;2023-04-06T02:28:22;2.10;99.90
7936;DHT22;4013;49.744;8.118;2023-04-06T02:30:49;2.10;99.90
7936;DHT22;4013;49.744;8.118;2023-04-06T02:33:18;2.10;99.90
7936;DHT22;4013;49.744;8.118;2023-04-06T02:35:45;2.00;99.90
7936;DHT22;4013;49.744;8.118;2023-04-06T02:38:12;1.90;99.90
7936;DHT22;4013;49.744;8.118;2023-04-06T02:40:39;1.90;99.90
7936;DHT22;4013;49.744;8.118;2023-04-06T02:43:06;1.90;99.90
7936;DHT22;4013;49.744;8.118;2023-04-06T02:45:33;1.80;99.90
7936;DHT22;4013;49.744;8.118;2023-04-06T02:48:00;1.90;99.90
7936;DHT22;4013;49.744;8.118;2023-04-06T02:50:29;1.90;99.90
7936;DHT22;4013;49.744;8.118;2023-04-06T02:52:56;1.90;99.90
7936;DHT22;4013;49.744;8.118;2023-04-06T02:55:23;1.90;99.90
7936;DHT22;4013;49.744;8.118;2023-04-06T02:57:50;2.00;99.90
7936;DHT22;4013;49.744;8.118;2023-04-06T03:00:18;2.00;99.90
7936;DHT22;4013;49.744;8.118;2023-04-06T03:02:45;2.00;99.90
7936;DHT22;4013;49.744;8.118;2023-04-06T03:05:12;1.90;99.90
7936;DHT22;4013;49.744;8.118;2023-04-06T03:07:40;1.90;99.90
7936;DHT22;4013;49.744;8.118;2023-04-06T03:10:08;1.80;99.90
7936;DHT22;4013;49.744;8.118;2023-04-06T03:12:36;1.70;99.90
7936;DHT22;4013;49.744;8.118;2023-04-06T03:15:03;1.70;99.90
7936;DHT22;4013;49.744;8.118;2023-04-06T03:17:31;1.70;99.90
7936;DHT22;4013;49.744;8.118;2023-04-06T03:19:58;1.80;99.90
7936;DHT22;4013;49.744;8.118;2023-04-06T03:22:25;1.80;99.90
7936;DHT22;4013;49.744;8.118;2023-04-06T03:24:54;1.70;99.90
7936;DHT22;4013;49.744;8.118;2023-04-06T03:27:21;1.60;99.90
7936;DHT22;4013;49.744;8.118;2023-04-06T03:29:48;1.60;99.90
7936;DHT22;4013;49.744;8.118;2023-04-06T03:32:15;1.50;99.90
7936;DHT22;4013;49.744;8.118;2023-04-06T03:34:42;1.50;99.90
7936;DHT22;4013;49.744;8.118;2023-04-06T03:37:09;1.60;99.90
7936;DHT22;4013;49.744;8.118;2023-04-06T03:39:36;1.70;99.90
7936;DHT22;4013;49.744;8.118;2023-04-06T03:42:04;1.80;99.90
7936;DHT22;4013;49.744;8.118;2023-04-06T03:44:31;1.90;99.90
7936;DHT22;4013;49.744;8.118;2023-04-06T03:46:59;1.90;99.90
7936;DHT22;4013;49.744;8.118;2023-04-06T03:49:26;1.90;99.90
7936;DHT22;4013;49.744;8.118;2023-04-06T03:51:53;1.90;99.90
7936;DHT22;4013;49.744;8.118;2023-04-06T03:54:20;1.90;99.90
7936;DHT22;4013;49.744;8.118;2023-04-06T03:56:47;1.90;99.90
7936;DHT22;4013;49.744;8.118;2023-04-06T03:59:16;1.90;99.90
7936;DHT22;4013;49.744;8.118;2023-04-06T04:01:43;1.90;99.90
7936;DHT22;4013;49.744;8.118;2023-04-06T04:04:11;1.90;99.90
7936;DHT22;4013;49.744;8.118;2023-04-06T04:06:41;1.80;99.90
7936;DHT22;4013;49.744;8.118;2023-04-06T04:09:08;1.70;99.90
7936;DHT22;4013;49.744;8.118;2023-04-06T04:11:35;1.80;99.90
7936;DHT22;4013;49.744;8.118;2023-04-06T04:14:02;1.80;99.90
7936;DHT22;4013;49.744;8.118;2023-04-06T04:16:31;1.70;99.90
7936;DHT22;4013;49.744;8.118;2023-04-06T04:18:58;1.70;99.90
7936;DHT22;4013;49.744;8.118;2023-04-06T04:21:25;1.70;99.90
7936;DHT22;4013;49.744;8.118;2023-04-06T04:23:52;1.60;99.90
7936;DHT22;4013;49.744;8.118;2023-04-06T04:26:19;1.60;99.90
7936;DHT22;4013;49.744;8.118;2023-04-06T04:28:47;1.60;99.90
7936;DHT22;4013;49.744;8.118;2023-04-06T04:31:14;1.70;99.90
7936;DHT22;4013;49.744;8.118;2023-04-06T04:33:44;1.70;99.90
7936;DHT22;4013;49.744;8.118;2023-04-06T04:36:11;1.80;99.90
7936;DHT22;4013;49.744;8.118;2023-04-06T04:38:39;1.70;99.90
7936;DHT22;4013;49.744;8.118;2023-04-06T04:41:06;1.70;99.90
7936;DHT22;4013;49.744;8.118;2023-04-06T04:43:33;1.70;99.90
7936;DHT22;4013;49.744;8.118;2023-04-06T04:46:00;1.70;99.90
7936;DHT22;4013;49.744;8.118;2023-04-06T04:48:27;1.70;99.90
7936;DHT22;4013;49.744;8.118;2023-04-06T04:50:56;1.60;99.90
7936;DHT22;4013;49.744;8.118;2023-04-06T04:53:23;1.60;99.90
7936;DHT22;4013;49.744;8.118;2023-04-06T04:55:51;1.70;99.90
7936;DHT22;4013;49.744;8.118;2023-04-06T04:58:18;1.60;99.90
7936;DHT22;4013;49.744;8.118;2023-04-06T05:00:45;1.70;99.90
7936;DHT22;4013;49.744;8.118;2023-04-06T05:03:23;1.80;99.90
7936;DHT22;4013;49.744;8.118;2023-04-06T05:05:50;1.70;99.90
7936;DHT22;4013;49.744;8.118;2023-04-06T05:08:18;1.60;99.90
7936;DHT22;4013;49.744;8.118;2023-04-06T05:10:45;1.50;99.90
7936;DHT22;4013;49.744;8.118;2023-04-06T05:13:14;1.50;99.90
7936;DHT22;4013;49.744;8.118;2023-04-06T05:15:41;1.50;99.90
7936;DHT22;4013;49.744;8.118;2023-04-06T05:18:08;1.40;99.90
7936;DHT22;4013;49.744;8.118;2023-04-06T05:20:36;1.60;99.90
7936;DHT22;4013;49.744;8.118;2023-04-06T05:23:03;1.60;99.90
7936;DHT22;4013;49.744;8.118;2023-04-06T05:25:32;1.70;99.90
7936;DHT22;4013;49.744;8.118;2023-04-06T05:27:59;1.70;99.90
7936;DHT22;4013;49.744;8.118;2023-04-06T05:30:26;1.60;99.90
7936;DHT22;4013;49.744;8.118;2023-04-06T05:32:54;1.60;99.90
7936;DHT22;4013;49.744;8.118;2023-04-06T05:35:21;1.60;99.90
7936;DHT22;4013;49.744;8.118;2023-04-06T05:37:48;1.70;99.90
7936;DHT22;4013;49.744;8.118;2023-04-06T05:40:15;1.90;99.90
7936;DHT22;4013;49.744;8.118;2023-04-06T05:42:44;1.90;99.90
7936;DHT22;4013;49.744;8.118;2023-04-06T05:45:11;1.90;99.90
7936;DHT22;4013;49.744;8.118;2023-04-06T05:47:42;1.90;99.90
7936;DHT22;4013;49.744;8.118;2023-04-06T05:50:10;2.00;99.90
7936;DHT22;4013;49.744;8.118;2023-04-06T05:52:37;2.00;99.90
7936;DHT22;4013;49.744;8.118;2023-04-06T05:55:07;2.00;99.90
7936;DHT22;4013;49.744;8.118;2023-04-06T05:57:34;2.00;99.90
7936;DHT22;4013;49.744;8.118;2023-04-06T06:00:03;2.00;99.90
7936;DHT22;4013;49.744;8.118;2023-04-06T06:02:32;2.10;99.90
7936;DHT22;4013;49.744;8.118;2023-04-06T06:04:59;2.10;99.90
7936;DHT22;4013;49.744;8.118;2023-04-06T06:07:26;2.30;99.90
7936;DHT22;4013;49.744;8.118;2023-04-06T06:09:56;2.40;99.90
7936;DHT22;4013;49.744;8.118;2023-04-06T06:12:23;2.50;99.90
7936;DHT22;4013;49.744;8.118;2023-04-06T06:14:50;2.60;99.90
7936;DHT22;4013;49.744;8.118;2023-04-06T06:17:19;2.60;99.90
7936;DHT22;4013;49.744;8.118;2023-04-06T06:19:46;2.80;99.90
7936;DHT22;4013;49.744;8.118;2023-04-06T06:22:13;3.00;99.90
7936;DHT22;4013;49.744;8.118;2023-04-06T06:24:40;3.10;99.90
7936;DHT22;4013;49.744;8.118;2023-04-06T06:27:07;3.20;99.90
7936;DHT22;4013;49.744;8.118;2023-04-06T06:29:34;3.40;99.90
7936;DHT22;4013;49.744;8.118;2023-04-06T06:32:01;3.60;99.90
7936;DHT22;4013;49.744;8.118;2023-04-06T06:34:30;3.80;99.90
7936;DHT22;4013;49.744;8.118;2023-04-06T06:36:57;3.90;99.90
7936;DHT22;4013;49.744;8.118;2023-04-06T06:39:24;4.00;99.90
7936;DHT22;4013;49.744;8.118;2023-04-06T06:41:51;4.00;99.90
7936;DHT22;4013;49.744;8.118;2023-04-06T06:44:18;4.10;99.90
7936;DHT22;4013;49.744;8.118;2023-04-06T06:46:45;4.20;99.90
7936;DHT22;4013;49.744;8.118;2023-04-06T06:49:12;4.30;99.90
7936;DHT22;4013;49.744;8.118;2023-04-06T06:51:41;4.40;99.90
7936;DHT22;4013;49.744;8.118;2023-04-06T06:54:08;4.50;99.90
7936;DHT22;4013;49.744;8.118;2023-04-06T06:56:35;4.60;99.90
7936;DHT22;4013;49.744;8.118;2023-04-06T06:59:03;4.60;99.90
7936;DHT22;4013;49.744;8.118;2023-04-06T07:01:32;4.60;99.90
7936;DHT22;4013;49.744;8.118;2023-04-06T07:03:59;4.60;99.90
7936;DHT22;4013;49.744;8.118;2023-04-06T07:06:26;4.70;99.90
7936;DHT22;4013;49.744;8.118;2023-04-06T07:08:55;4.70;99.90
7936;DHT22;4013;49.744;8.118;2023-04-06T07:11:22;4.80;99.90
7936;DHT22;4013;49.744;8.118;2023-04-06T07:13:49;4.90;99.90
7936;DHT22;4013;49.744;8.118;2023-04-06T07:16:16;5.10;99.90
7936;DHT22;4013;49.744;8.118;2023-04-06T07:18:43;5.20;99.90
7936;DHT22;4013;49.744;8.118;2023-04-06T07:21:10;5.30;99.90
7936;DHT22;4013;49.744;8.118;2023-04-06T07:23:37;5.30;99.90
7936;DHT22;4013;49.744;8.118;2023-04-06T07:26:06;5.30;99.90
7936;DHT22;4013;49.744;8.118;2023-04-06T07:28:33;5.40;99.90
7936;DHT22;4013;49.744;8.118;2023-04-06T07:31:00;5.40;99.90
7936;DHT22;4013;49.744;8.118;2023-04-06T07:33:27;5.50;99.90
7936;DHT22;4013;49.744;8.118;2023-04-06T07:35:55;5.50;99.90
7936;DHT22;4013;49.744;8.118;2023-04-06T07:38:23;5.50;99.90
7936;DHT22;4013;49.744;8.118;2023-04-06T07:40:50;5.70;99.90
7936;DHT22;4013;49.744;8.118;2023-04-06T07:43:19;5.80;99.90
7936;DHT22;4013;49.744;8.118;2023-04-06T07:45:46;5.90;99.90
7936;DHT22;4013;49.744;8.118;2023-04-06T07:48:13;5.90;99.90
7936;DHT22;4013;49.744;8.118;2023-04-06T07:50:40;6.00;99.90
7936;DHT22;4013;49.744;8.118;2023-04-06T07:53:08;6.10;99.90
7936;DHT22;4013;49.744;8.118;2023-04-06T07:55:35;6.00;99.90
7936;DHT22;4013;49.744;8.118;2023-04-06T07:58:02;6.10;99.90
7936;DHT22;4013;49.744;8.118;2023-04-06T08:00:31;6.20;99.90
7936;DHT22;4013;49.744;8.118;2023-04-06T08:02:58;6.20;99.90
7936;DHT22;4013;49.744;8.118;2023-04-06T08:05:25;6.20;99.90
7936;DHT22;4013;49.744;8.118;2023-04-06T08:07:52;6.40;99.90
7936;DHT22;4013;49.744;8.118;2023-04-06T08:10:19;6.50;99.90
7936;DHT22;4013;49.744;8.118;2023-04-06T08:12:46;6.70;99.90
7936;DHT22;4013;49.744;8.118;2023-04-06T08:15:13;6.70;99.90
7936;DHT22;4013;49.744;8.118;2023-04-06T08:17:42;6.80;99.90
7936;DHT22;4013;49.744;8.118;2023-04-06T08:20:10;6.80;99.90
7936;DHT22;4013;49.744;8.118;2023-04-06T08:22:37;6.90;99.90
7936;DHT22;4013;49.744;8.118;2023-04-06T08:25:04;6.90;99.90
7936;DHT22;4013;49.744;8.118;2023-04-06T08:27:31;6.90;99.90
7936;DHT22;4013;49.744;8.118;2023-04-06T08:29:58;6.90;99.90
7936;DHT22;4013;49.744;8.118;2023-04-06T08:32:25;7.10;99.90
7936;DHT22;4013;49.744;8.118;2023-04-06T08:34:54;7.30;99.90
7936;DHT22;4013;49.744;8.118;2023-04-06T08:37:21;7.40;99.90
7936;DHT22;4013;49.744;8.118;2023-04-06T08:39:49;7.50;99.90
7936;DHT22;4013;49.744;8.118;2023-04-06T08:42:19;7.60;99.90
7936;DHT22;4013;49.744;8.118;2023-04-06T08:44:47;7.70;99.90
7936;DHT22;4013;49.744;8.118;2023-04-06T08:47:15;7.80;99.90
7936;DHT22;4013;49.744;8.118;2023-04-06T08:49:44;7.80;99.90
7936;DHT22;4013;49.744;8.118;2023-04-06T08:52:14;7.90;99.90
7936;DHT22;4013;49.744;8.118;2023-04-06T08:54:42;8.00;99.90
7936;DHT22;4013;49.744;8.118;2023-04-06T08:57:09;8.10;99.90
7936;DHT22;4013;49.744;8.118;2023-04-06T08:59:36;8.20;99.90
7936;DHT22;4013;49.744;8.118;2023-04-06T09:02:04;8.20;99.90
7936;DHT22;4013;49.744;8.118;2023-04-06T09:04:33;8.20;99.90
7936;DHT22;4013;49.744;8.118;2023-04-06T09:07:01;8.30;99.90
7936;DHT22;4013;49.744;8.118;2023-04-06T09:09:29;8.40;99.90
7936;DHT22;4013;49.744;8.118;2023-04-06T09:11:56;8.50;99.90
7936;DHT22;4013;49.744;8.118;2023-04-06T09:14:35;8.60;99.90
7936;DHT22;4013;49.744;8.118;2023-04-06T09:17:03;8.70;99.90
7936;DHT22;4013;49.744;8.118;2023-04-06T09:19:31;8.80;99.90
7936;DHT22;4013;49.744;8.118;2023-04-06T09:22:04;8.80;99.90
7936;DHT22;4013;49.744;8.118;2023-04-06T09:24:44;8.90;99.90
7936;DHT22;4013;49.744;8.118;2023-04-06T09:27:11;9.00;99.90
7936;DHT22;4013;49.744;8.118;2023-04-06T09:29:39;9.20;99.90
7936;DHT22;4013;49.744;8.118;2023-04-06T09:32:07;9.30;99.90
7936;DHT22;4013;49.744;8.118;2023-04-06T09:34:37;9.40;99.90
7936;DHT22;4013;49.744;8.118;2023-04-06T09:37:12;9.50;99.90
7936;DHT22;4013;49.744;8.118;2023-04-06T09:39:40;9.60;99.90
7936;DHT22;4013;49.744;8.118;2023-04-06T09:42:08;9.60;99.90
7936;DHT22;4013;49.744;8.118;2023-04-06T09:44:36;9.70;99.90
7936;DHT22;4013;49.744;8.118;2023-04-06T09:47:06;9.70;99.90
7936;DHT22;4013;49.744;8.118;2023-04-06T09:49:34;9.90;99.90
7936;DHT22;4013;49.744;8.118;2023-04-06T09:52:03;10.00;99.90
7936;DHT22;4013;49.744;8.118;2023-04-06T09:54:31;10.00;99.90
7936;DHT22;4013;49.744;8.118;2023-04-06T09:57:03;10.10;99.90
7936;DHT22;4013;49.744;8.118;2023-04-06T09:59:39;10.20;99.90
7936;DHT22;4013;49.744;8.118;2023-04-06T10:02:15;10.20;99.90
7936;DHT22;4013;49.744;8.118;2023-04-06T10:04:46;10.40;99.90
7936;DHT22;4013;49.744;8.118;2023-04-06T10:07:15;10.50;99.90
7936;DHT22;4013;49.744;8.118;2023-04-06T10:09:44;10.70;99.90
7936;DHT22;4013;49.744;8.118;2023-04-06T10:12:13;10.80;99.90
7936;DHT22;4013;49.744;8.118;2023-04-06T10:14:43;11.00;99.90
7936;DHT22;4013;49.744;8.118;2023-04-06T10:17:10;11.00;99.90
7936;DHT22;4013;49.744;8.118;2023-04-06T10:19:41;10.90;99.90
7936;DHT22;4013;49.744;8.118;2023-04-06T10:22:12;11.00;99.90
7936;DHT22;4013;49.744;8.118;2023-04-06T10:24:42;11.00;99.90
7936;DHT22;4013;49.744;8.118;2023-04-06T10:27:09;11.00;99.90
7936;DHT22;4013;49.744;8.118;2023-04-06T10:29:47;11.10;99.90
7936;DHT22;4013;49.744;8.118;2023-04-06T10:32:15;11.10;99.90
7936;DHT22;4013;49.744;8.118;2023-04-06T10:34:42;11.10;99.90
7936;DHT22;4013;49.744;8.118;2023-04-06T10:37:13;11.20;99.90
7936;DHT22;4013;49.744;8.118;2023-04-06T10:39:47;11.20;99.90
7936;DHT22;4013;49.744;8.118;2023-04-06T10:42:14;11.30;99.90
7936;DHT22;4013;49.744;8.118;2023-04-06T10:44:49;11.30;99.90
7936;DHT22;4013;49.744;8.118;2023-04-06T10:47:17;11.40;99.90
7936;DHT22;4013;49.744;8.118;2023-04-06T10:49:44;11.40;99.90
7936;DHT22;4013;49.744;8.118;2023-04-06T10:52:11;11.30;99.90
7936;DHT22;4013;49.744;8.118;2023-04-06T10:54:42;11.30;99.90
7936;DHT22;4013;49.744;8.118;2023-04-06T10:57:10;11.40;99.90
7936;DHT22;4013;49.744;8.118;2023-04-06T10:59:41;11.50;99.90
7936;DHT22;4013;49.744;8.118;2023-04-06T11:02:19;11.50;99.90
7936;DHT22;4013;49.744;8.118;2023-04-06T11:04:54;11.50;99.90
7936;DHT22;4013;49.744;8.118;2023-04-06T11:07:25;11.60;99.90
7936;DHT22;4013;49.744;8.118;2023-04-06T11:09:53;11.60;99.60
7936;DHT22;4013;49.744;8.118;2023-04-06T11:12:24;11.70;99.90
7936;DHT22;4013;49.744;8.118;2023-04-06T11:14:55;11.70;98.20
7936;DHT22;4013;49.744;8.118;2023-04-06T11:17:28;11.80;98.50
7936;DHT22;4013;49.744;8.118;2023-04-06T11:19:56;11.90;98.10
7936;DHT22;4013;49.744;8.118;2023-04-06T11:22:23;12.00;99.60
7936;DHT22;4013;49.744;8.118;2023-04-06T11:24:50;12.20;97.30
7936;DHT22;4013;49.744;8.118;2023-04-06T11:27:18;12.40;95.80
7936;DHT22;4013;49.744;8.118;2023-04-06T11:29:46;12.50;98.40
7936;DHT22;4013;49.744;8.118;2023-04-06T11:32:21;12.60;93.30
7936;DHT22;4013;49.744;8.118;2023-04-06T11:34:50;12.60;92.70
7936;DHT22;4013;49.744;8.118;2023-04-06T11:37:17;12.50;90.70
7936;DHT22;4013;49.744;8.118;2023-04-06T11:39:48;12.50;90.60
7936;DHT22;4013;49.744;8.118;2023-04-06T11:42:22;12.40;90.50
7936;DHT22;4013;49.744;8.118;2023-04-06T11:44:53;12.40;90.20
7936;DHT22;4013;49.744;8.118;2023-04-06T11:47:27;12.50;91.00
7936;DHT22;4013;49.744;8.118;2023-04-06T11:50:04;12.30;78.60
7936;DHT22;4013;49.744;8.118;2023-04-06T11:52:31;12.40;85.20
7936;DHT22;4013;49.744;8.118;2023-04-06T11:54:58;12.70;82.50
7936;DHT22;4013;49.744;8.118;2023-04-06T11:57:36;12.90;86.00
7936;DHT22;4013;49.744;8.118;2023-04-06T12:00:04;13.10;85.10
7936;DHT22;4013;49.744;8.118;2023-04-06T12:02:31;13.20;78.30
7936;DHT22;4013;49.744;8.118;2023-04-06T12:05:00;13.30;78.90
7936;DHT22;4013;49.744;8.118;2023-04-06T12:07:28;13.30;79.50
7936;DHT22;4013;49.744;8.118;2023-04-06T12:09:55;13.20;79.40
7936;DHT22;4013;49.744;8.118;2023-04-06T12:12:22;13.00;78.30
7936;DHT22;4013;49.744;8.118;2023-04-06T12:14:49;12.90;80.20
7936;DHT22;4013;49.744;8.118;2023-04-06T12:17:17;12.90;78.60
7936;DHT22;4013;49.744;8.118;2023-04-06T12:19:44;12.90;79.90
7936;DHT22;4013;49.744;8.118;2023-04-06T12:22:13;13.00;77.10
7936;DHT22;4013;49.744;8.118;2023-04-06T12:24:40;13.10;78.40
7936;DHT22;4013;49.744;8.118;2023-04-06T12:27:07;13.10;77.40
7936;DHT22;4013;49.744;8.118;2023-04-06T12:29:36;13.30;75.50
7936;DHT22;4013;49.744;8.118;2023-04-06T12:32:03;13.40;73.70
7936;DHT22;4013;49.744;8.118;2023-04-06T12:34:31;13.40;71.40
7936;DHT22;4013;49.744;8.118;2023-04-06T12:36:58;13.30;72.50
7936;DHT22;4013;49.744;8.118;2023-04-06T12:39:27;13.20;72.80
7936;DHT22;4013;49.744;8.118;2023-04-06T12:41:54;13.10;71.80
7936;DHT22;4013;49.744;8.118;2023-04-06T12:44:22;12.90;71.60
7936;DHT22;4013;49.744;8.118;2023-04-06T12:46:50;12.90;73.20
7936;DHT22;4013;49.744;8.118;2023-04-06T12:49:17;12.90;73.30
7936;DHT22;4013;49.744;8.118;2023-04-06T12:51:45;13.00;69.90
7936;DHT22;4013;49.744;8.118;2023-04-06T12:54:12;13.10;73.10
7936;DHT22;4013;49.744;8.118;2023-04-06T12:56:40;13.10;73.20
7936;DHT22;4013;49.744;8.118;2023-04-06T12:59:08;13.20;69.90
7936;DHT22;4013;49.744;8.118;2023-04-06T13:01:35;13.20;71.20
7936;DHT22;4013;49.744;8.118;2023-04-06T13:04:02;13.40;75.60
7936;DHT22;4013;49.744;8.118;2023-04-06T13:06:29;13.40;72.70
7936;DHT22;4013;49.744;8.118;2023-04-06T13:08:56;13.50;83.40
7936;DHT22;4013;49.744;8.118;2023-04-06T13:11:23;13.50;93.30
7936;DHT22;4013;49.744;8.118;2023-04-06T13:13:52;13.60;99.10
7936;DHT22;4013;49.744;8.118;2023-04-06T13:16:19;13.70;99.90
7936;DHT22;4013;49.744;8.118;2023-04-06T13:18:46;13.70;99.90
7936;DHT22;4013;49.744;8.118;2023-04-06T13:21:14;13.60;99.90
7936;DHT22;4013;49.744;8.118;2023-04-06T13:23:42;13.60;99.90
7936;DHT22;4013;49.744;8.118;2023-04-06T13:26:09;13.60;99.90
7936;DHT22;4013;49.744;8.118;2023-04-06T13:28:36;13.60;99.90
7936;DHT22;4013;49.744;8.118;2023-04-06T13:31:06;13.70;99.90
7936;DHT22;4013;49.744;8.118;2023-04-06T13:33:33;13.80;99.90
7936;DHT22;4013;49.744;8.118;2023-04-06T13:36:03;13.80;99.90
7936;DHT22;4013;49.744;8.118;2023-04-06T13:38:30;13.80;99.90
7936;DHT22;4013;49.744;8.118;2023-04-06T13:40:59;13.80;99.90
7936;DHT22;4013;49.744;8.118;2023-04-06T13:43:26;13.90;99.90
7936;DHT22;4013;49.744;8.118;2023-04-06T13:45:54;13.90;99.90
7936;DHT22;4013;49.744;8.118;2023-04-06T13:48:25;13.80;99.90
7936;DHT22;4013;49.744;8.118;2023-04-06T13:50:52;13.70;99.90
7936;DHT22;4013;49.744;8.118;2023-04-06T13:53:19;13.70;99.90
7936;DHT22;4013;49.744;8.118;2023-04-06T13:55:52;13.70;99.90
7936;DHT22;4013;49.744;8.118;2023-04-06T13:58:19;13.70;99.90
7936;DHT22;4013;49.744;8.118;2023-04-06T14:00:47;13.70;99.90
7936;DHT22;4013;49.744;8.118;2023-04-06T14:03:14;13.60;99.90
7936;DHT22;4013;49.744;8.118;2023-04-06T14:05:42;13.60;99.90
7936;DHT22;4013;49.744;8.118;2023-04-06T14:08:09;13.60;99.90
7936;DHT22;4013;49.744;8.118;2023-04-06T14:10:37;13.50;99.90
7936;DHT22;4013;49.744;8.118;2023-04-06T14:13:05;13.40;99.90
7936;DHT22;4013;49.744;8.118;2023-04-06T14:15:32;13.40;99.90
7936;DHT22;4013;49.744;8.118;2023-04-06T14:17:59;13.40;99.90
7936;DHT22;4013;49.744;8.118;2023-04-06T14:20:27;13.50;99.90
7936;DHT22;4013;49.744;8.118;2023-04-06T14:22:55;13.50;99.90
7936;DHT22;4013;49.744;8.118;2023-04-06T14:25:22;13.50;99.90
7936;DHT22;4013;49.744;8.118;2023-04-06T14:27:49;13.50;99.90
7936;DHT22;4013;49.744;8.118;2023-04-06T14:30:16;13.60;99.90
7936;DHT22;4013;49.744;8.118;2023-04-06T14:32:43;13.60;99.90
7936;DHT22;4013;49.744;8.118;2023-04-06T14:35:10;13.50;99.90
7936;DHT22;4013;49.744;8.118;2023-04-06T14:37:37;13.50;99.90
7936;DHT22;4013;49.744;8.118;2023-04-06T14:40:06;13.50;99.90
7936;DHT22;4013;49.744;8.118;2023-04-06T14:42:34;13.50;99.90
7936;DHT22;4013;49.744;8.118;2023-04-06T14:45:02;13.50;99.90
7936;DHT22;4013;49.744;8.118;2023-04-06T14:47:29;13.30;99.90
7936;DHT22;4013;49.744;8.118;2023-04-06T14:49:56;13.20;99.90
7936;DHT22;4013;49.744;8.118;2023-04-06T14:52:23;13.10;99.90
7936;DHT22;4013;49.744;8.118;2023-04-06T14:54:50;13.00;99.90
7936;DHT22;4013;49.744;8.118;2023-04-06T14:57:18;13.00;99.90
7936;DHT22;4013;49.744;8.118;2023-04-06T14:59:45;12.80;99.90
7936;DHT22;4013;49.744;8.118;2023-04-06T15:02:12;12.90;99.90
7936;DHT22;4013;49.744;8.118;2023-04-06T15:04:39;12.80;99.90
7936;DHT22;4013;49.744;8.118;2023-04-06T15:07:06;12.80;99.90
7936;DHT22;4013;49.744;8.118;2023-04-06T15:09:33;12.80;99.90
7936;DHT22;4013;49.744;8.118;2023-04-06T15:12:00;12.80;99.90
7936;DHT22;4013;49.744;8.118;2023-04-06T15:14:29;12.70;99.90
7936;DHT22;4013;49.744;8.118;2023-04-06T15:16:55;12.60;93.90
7936;DHT22;4013;49.744;8.118;2023-04-06T15:19:22;12.40;89.60
7936;DHT22;4013;49.744;8.118;2023-04-06T15:21:49;12.40;99.90
7936;DHT22;4013;49.744;8.118;2023-04-06T15:24:16;12.30;71.10
7936;DHT22;4013;49.744;8.118;2023-04-06T15:26:43;12.20;71.60
7936;DHT22;4013;49.744;8.118;2023-04-06T15:29:11;12.20;71.60
7936;DHT22;4013;49.744;8.118;2023-04-06T15:31:39;12.20;71.20
7936;DHT22;4013;49.744;8.118;2023-04-06T15:34:07;12.10;71.70
7936;DHT22;4013;49.744;8.118;2023-04-06T15:36:34;12.00;72.50
7936;DHT22;4013;49.744;8.118;2023-04-06T15:39:01;12.10;73.80
7936;DHT22;4013;49.744;8.118;2023-04-06T15:41:29;12.10;74.80
7936;DHT22;4013;49.744;8.118;2023-04-06T15:43:56;12.10;76.80
7936;DHT22;4013;49.744;8.118;2023-04-06T15:46:23;12.10;77.10
7936;DHT22;4013;49.744;8.118;2023-04-06T15:48:51;12.10;76.40
7936;DHT22;4013;49.744;8.118;2023-04-06T15:51:18;12.10;76.60
7936;DHT22;4013;49.744;8.118;2023-04-06T15:53:45;12.00;76.50
7936;DHT22;4013;49.744;8.118;2023-04-06T15:56:12;12.00;78.30
7936;DHT22;4013;49.744;8.118;2023-04-06T15:58:40;12.00;80.10
7936;DHT22;4013;49.744;8.118;2023-04-06T16:01:11;11.90;81.00
7936;DHT22;4013;49.744;8.118;2023-04-06T16:03:39;12.00;83.80
7936;DHT22;4013;49.744;8.118;2023-04-06T16:06:07;12.00;87.40
7936;DHT22;4013;49.744;8.118;2023-04-06T16:08:35;12.00;91.20
7936;DHT22;4013;49.744;8.118;2023-04-06T16:11:02;11.90;91.50
7936;DHT22;4013;49.744;8.118;2023-04-06T16:13:31;11.80;92.70
7936;DHT22;4013;49.744;8.118;2023-04-06T16:15:58;11.70;92.90